Time;durP1;ratioP1;P1;durP2;ratioP2;P2;SDS_P1;SDS_P2;PMS_P1;PMS_P2;Temp;Humidity;BMP_temperature;BMP_pressure;BME280_temperature;BME280_humidity;BME280_pressure;Samples;Min_cycle;Max_cycle;Signal;HPM_P1;HPM_P2
2023/06/04 00:01:04;;;;;;;14.60;13.80;;;;;;;;;;5035514;28;20025;-57
2023/06/04 00:03:30;;;;;;;15.23;14.32;;;;;;;;;;5036295;28;20147;-57
2023/06/04 00:05:55;;;;;;;14.50;13.70;;;;;;;;;;5033408;28;20037;-57
2023/06/04 00:08:21;;;;;;;15.10;14.20;;;;;;;;;;5036971;28;20029;-58
2023/06/04 00:10:47;;;;;;;15.35;14.45;;;;;;;;;;5045886;28;20064;-56
2023/06/04 00:13:12;;;;;;;16.23;15.25;;;;;;;;;;5034235;28;20033;-56
2023/06/04 00:15:38;;;;;;;16.17;15.27;;;;;;;;;;5035209;28;20048;-58
2023/06/04 00:18:03;;;;;;;17.05;16.05;;;;;;;;;;5040605;28;20519;-58
2023/06/04 00:20:28;;;;;;;17.23;16.20;;;;;;;;;;5036546;28;20025;-62
2023/06/04 00:22:54;;;;;;;22.67;21.48;;;;;;;;;;5035236;28;20040;-63
2023/06/04 00:25:19;;;;;;;16.15;15.25;;;;;;;;;;5035522;28;20119;-58
2023/06/04 00:27:45;;;;;;;18.83;17.77;;;;;;;;;;5038004;28;20065;-62
2023/06/04 00:30:11;;;;;;;22.13;20.95;;;;;;;;;;5037570;28;20048;-63
2023/06/04 00:32:36;;;;;;;27.17;25.77;;;;;;;;;;5036695;28;20044;-62
2023/06/04 00:35:02;;;;;;;20.77;19.67;;;;;;;;;;5040223;28;20037;-58
2023/06/04 00:37:28;;;;;;;21.73;20.52;;;;;;;;;;5038023;28;20045;-61
2023/06/04 00:39:54;;;;;;;24.58;23.27;;;;;;;;;;5037338;28;20166;-61
2023/06/04 00:42:19;;;;;;;21.25;20.10;;;;;;;;;;5036351;28;20105;-58
2023/06/04 00:44:45;;;;;;;23.38;22.08;;;;;;;;;;5035505;28;20443;-61
2023/06/04 00:47:19;;;;;;;26.40;25.00;;;;;;;;;;5036212;28;20490;-58
2023/06/04 00:49:45;;;;;;;25.23;23.90;;;;;;;;;;5035411;28;20480;-58
2023/06/04 00:52:13;;;;;;;25.13;23.73;;;;;;;;;;5036111;28;20040;-58
2023/06/04 00:54:40;;;;;;;26.70;25.25;;;;;;;;;;5034963;28;20037;-58
2023/06/04 00:57:06;;;;;;;28.27;26.77;;;;;;;;;;5034100;28;20022;-58
2023/06/04 00:59:32;;;;;;;26.60;25.20;;;;;;;;;;5035108;28;20095;-58
2023/06/04 01:02:06;;;;;;;28.65;27.10;;;;;;;;;;5037372;28;20457;-58
2023/06/04 01:04:48;;;;;;;29.27;27.77;;;;;;;;;;5035994;28;20128;-58
2023/06/04 01:07:16;;;;;;;29.42;27.92;;;;;;;;;;5037729;28;20431;-61
2023/06/04 01:09:43;;;;;;;27.85;26.35;;;;;;;;;;5035413;28;20036;-61
2023/06/04 01:12:10;;;;;;;27.75;26.25;;;;;;;;;;5036422;28;20037;-58
2023/06/04 01:14:35;;;;;;;28.25;26.55;;;;;;;;;;5037520;28;20059;-58
2023/06/04 01:17:23;;;;;;;25.35;24.00;;;;;;;;;;5037154;28;20060;-58
2023/06/04 01:19:51;;;;;;;24.60;23.23;;;;;;;;;;5034193;28;20029;-58
2023/06/04 01:22:46;;;;;;;26.85;25.35;;;;;;;;;;5037970;28;20033;-62
2023/06/04 01:25:21;;;;;;;24.73;23.38;;;;;;;;;;5019242;28;20149;-57
2023/06/04 01:27:52;;;;;;;22.17;20.98;;;;;;;;;;5036550;28;20033;-57
2023/06/04 01:30:22;;;;;;;20.77;19.67;;;;;;;;;;5035066;28;20653;-62
2023/06/04 01:32:48;;;;;;;22.70;21.45;;;;;;;;;;5034703;28;20036;-62
2023/06/04 01:35:13;;;;;;;25.95;24.17;;;;;;;;;;5036397;28;20032;-58
2023/06/04 01:37:39;;;;;;;24.73;23.42;;;;;;;;;;5034682;28;20374;-62
2023/06/04 01:40:05;;;;;;;21.88;20.58;;;;;;;;;;5033128;28;20037;-57
2023/06/04 01:42:31;;;;;;;23.67;22.38;;;;;;;;;;5033111;28;20069;-58
2023/06/04 01:44:56;;;;;;;24.02;22.63;;;;;;;;;;5034393;28;20117;-58
2023/06/04 01:47:21;;;;;;;17.73;16.73;;;;;;;;;;5036420;28;20366;-62
2023/06/04 01:49:47;;;;;;;22.08;20.88;;;;;;;;;;5037751;28;20411;-58
2023/06/04 01:52:12;;;;;;;18.98;17.98;;;;;;;;;;5035446;28;20529;-62
2023/06/04 01:54:38;;;;;;;21.85;20.65;;;;;;;;;;5038725;28;20035;-62
2023/06/04 01:57:05;;;;;;;21.25;19.90;;;;;;;;;;5033646;28;20111;-58
2023/06/04 01:59:31;;;;;;;18.52;17.42;;;;;;;;;;5033180;28;20047;-56
2023/06/04 02:01:57;;;;;;;16.35;15.45;;;;;;;;;;5034472;28;20040;-62
2023/06/04 02:04:23;;;;;;;15.80;14.88;;;;;;;;;;5035913;28;20094;-57
2023/06/04 02:06:49;;;;;;;14.60;13.77;;;;;;;;;;5031924;28;20037;-61
2023/06/04 02:09:15;;;;;;;17.98;16.98;;;;;;;;;;5035581;28;20040;-58
2023/06/04 02:11:40;;;;;;;16.35;15.38;;;;;;;;;;5033827;28;20649;-58
2023/06/04 02:14:05;;;;;;;13.73;12.93;;;;;;;;;;5034611;28;20163;-56
2023/06/04 02:16:32;;;;;;;13.02;12.23;;;;;;;;;;5031516;28;20029;-58
2023/06/04 02:18:58;;;;;;;12.25;11.50;;;;;;;;;;5033950;28;20029;-58
2023/06/04 02:21:24;;;;;;;13.07;12.18;;;;;;;;;;5036353;28;20362;-57
2023/06/04 02:23:49;;;;;;;12.63;11.88;;;;;;;;;;5035508;28;20036;-56
2023/06/04 02:26:14;;;;;;;12.48;11.57;;;;;;;;;;5034409;28;20043;-56
2023/06/04 02:28:40;;;;;;;14.73;13.65;;;;;;;;;;5034423;28;20374;-56
2023/06/04 02:31:05;;;;;;;11.10;10.40;;;;;;;;;;5036354;28;20362;-61
2023/06/04 02:33:31;;;;;;;11.40;10.70;;;;;;;;;;5033056;28;20061;-61
2023/06/04 02:35:57;;;;;;;14.10;13.30;;;;;;;;;;5031915;28;20113;-60
2023/06/04 02:38:22;;;;;;;14.07;13.25;;;;;;;;;;5034956;28;20402;-56
2023/06/04 02:40:47;;;;;;;13.57;12.68;;;;;;;;;;5034959;28;20032;-56
2023/06/04 02:43:13;;;;;;;12.63;11.93;;;;;;;;;;5033376;28;20107;-61
2023/06/04 02:45:38;;;;;;;13.05;12.25;;;;;;;;;;5035511;28;20033;-57
2023/06/04 02:48:03;;;;;;;11.88;11.18;;;;;;;;;;5033407;28;20029;-56
2023/06/04 02:50:29;;;;;;;11.20;10.50;;;;;;;;;;5034285;28;20766;-57
2023/06/04 02:52:55;;;;;;;12.35;11.55;;;;;;;;;;5032915;28;20033;-61
2023/06/04 02:55:20;;;;;;;12.30;11.50;;;;;;;;;;5035288;28;20048;-60
2023/06/04 02:57:45;;;;;;;11.48;10.77;;;;;;;;;;5034332;28;20402;-61
2023/06/04 03:00:13;;;;;;;11.00;10.30;;;;;;;;;;5031846;28;20102;-62
2023/06/04 03:02:43;;;;;;;10.35;9.73;;;;;;;;;;5034351;28;20037;-58
2023/06/04 03:05:13;;;;;;;10.80;10.17;;;;;;;;;;5033825;28;20047;-57
2023/06/04 03:07:43;;;;;;;11.30;10.60;;;;;;;;;;5033218;28;20362;-61
2023/06/04 03:10:09;;;;;;;10.77;10.18;;;;;;;;;;5033911;28;20064;-60
2023/06/04 03:12:35;;;;;;;11.02;10.23;;;;;;;;;;5035420;28;20087;-61
2023/06/04 03:15:00;;;;;;;10.27;9.68;;;;;;;;;;5039185;28;20033;-61
2023/06/04 03:17:26;;;;;;;10.95;10.25;;;;;;;;;;5034627;28;20041;-62
2023/06/04 03:19:52;;;;;;;11.18;10.35;;;;;;;;;;5032583;28;20039;-60
2023/06/04 03:22:17;;;;;;;10.77;10.13;;;;;;;;;;5033239;28;20483;-57
2023/06/04 03:24:42;;;;;;;11.32;10.63;;;;;;;;;;5036155;28;20045;-56
2023/06/04 03:27:09;;;;;;;11.20;10.50;;;;;;;;;;5034349;28;20049;-56
2023/06/04 03:29:35;;;;;;;11.52;10.82;;;;;;;;;;5033594;28;20048;-57
2023/06/04 03:32:01;;;;;;;11.30;10.60;;;;;;;;;;5031557;28;20040;-61
2023/06/04 03:34:27;;;;;;;11.70;11.00;;;;;;;;;;5032848;28;20033;-61
2023/06/04 03:36:54;;;;;;;11.60;10.90;;;;;;;;;;5032053;28;20048;-61
2023/06/04 03:39:19;;;;;;;12.52;11.73;;;;;;;;;;5032433;28;20037;-62
2023/06/04 03:41:44;;;;;;;11.73;11.02;;;;;;;;;;5036063;28;20039;-62
2023/06/04 03:44:13;;;;;;;11.52;10.82;;;;;;;;;;5039523;28;20374;-57
2023/06/04 03:46:39;;;;;;;12.15;11.45;;;;;;;;;;5038892;28;20070;-60
2023/06/04 03:49:04;;;;;;;13.98;13.13;;;;;;;;;;5036876;28;20037;-57
2023/06/04 03:51:30;;;;;;;12.35;11.65;;;;;;;;;;5040595;28;20114;-57
2023/06/04 03:53:58;;;;;;;12.85;12.05;;;;;;;;;;5042953;28;20079;-56
2023/06/04 03:56:23;;;;;;;12.00;11.30;;;;;;;;;;5038049;28;20033;-61
2023/06/04 03:58:48;;;;;;;13.35;12.55;;;;;;;;;;5039379;28;20041;-62
2023/06/04 04:01:14;;;;;;;13.43;12.63;;;;;;;;;;5037543;28;20035;-56
2023/06/04 04:03:39;;;;;;;13.13;12.32;;;;;;;;;;5037286;28;20080;-56
2023/06/04 04:06:05;;;;;;;14.07;13.18;;;;;;;;;;5038747;28;20028;-61
2023/06/04 04:08:31;;;;;;;12.88;12.05;;;;;;;;;;5037044;28;20032;-57
2023/06/04 04:11:00;;;;;;;13.25;12.45;;;;;;;;;;5035335;28;20036;-55
2023/06/04 04:13:25;;;;;;;13.85;13.05;;;;;;;;;;5035521;28;20036;-62
2023/06/04 04:15:52;;;;;;;13.13;12.32;;;;;;;;;;5035838;28;20049;-57
2023/06/04 04:18:19;;;;;;;13.55;12.75;;;;;;;;;;5034495;28;20128;-62
2023/06/04 04:20:46;;;;;;;14.10;13.15;;;;;;;;;;5037143;28;20032;-58
2023/06/04 04:23:12;;;;;;;14.05;13.25;;;;;;;;;;5038345;28;20037;-63
2023/06/04 04:25:37;;;;;;;13.05;12.25;;;;;;;;;;5038704;28;20455;-55
2023/06/04 04:28:06;;;;;;;13.27;12.48;;;;;;;;;;5041672;28;20051;-58
2023/06/04 04:30:34;;;;;;;13.45;12.65;;;;;;;;;;5037209;28;20455;-58
2023/06/04 04:33:00;;;;;;;14.45;13.65;;;;;;;;;;5044511;28;20144;-63
2023/06/04 04:35:25;;;;;;;13.63;12.82;;;;;;;;;;5034767;28;20115;-62
2023/06/04 04:37:51;;;;;;;14.60;13.80;;;;;;;;;;5034816;28;20463;-62
2023/06/04 04:40:16;;;;;;;12.80;12.02;;;;;;;;;;5034944;28;20516;-62
2023/06/04 04:42:42;;;;;;;14.07;13.05;;;;;;;;;;5037383;28;20128;-62
2023/06/04 04:45:08;;;;;;;13.00;12.20;;;;;;;;;;5038204;28;20029;-57
2023/06/04 04:47:33;;;;;;;14.82;13.93;;;;;;;;;;5038164;28;20304;-58
2023/06/04 04:49:58;;;;;;;15.23;14.32;;;;;;;;;;5031721;28;20472;-57
2023/06/04 04:52:24;;;;;;;14.25;13.45;;;;;;;;;;5035810;28;20036;-62
2023/06/04 04:54:49;;;;;;;15.40;14.43;;;;;;;;;;5037876;28;20034;-58
2023/06/04 04:57:15;;;;;;;14.63;13.63;;;;;;;;;;5038890;28;20153;-57
2023/06/04 04:59:40;;;;;;;14.10;13.30;;;;;;;;;;5039366;28;20033;-57
2023/06/04 05:02:05;;;;;;;15.32;14.43;;;;;;;;;;5035139;28;20033;-57
2023/06/04 05:04:31;;;;;;;14.02;13.23;;;;;;;;;;5038541;28;20072;-56
2023/06/04 05:06:56;;;;;;;16.08;15.18;;;;;;;;;;5039651;28;20094;-58
2023/06/04 05:09:21;;;;;;;14.32;13.52;;;;;;;;;;5033363;28;20095;-55
2023/06/04 05:11:47;;;;;;;13.68;12.40;;;;;;;;;;5036674;28;20029;-56
2023/06/04 05:14:12;;;;;;;13.05;12.15;;;;;;;;;;5040111;28;20032;-61
2023/06/04 05:16:37;;;;;;;12.95;12.15;;;;;;;;;;5033714;28;20033;-61
2023/06/04 05:19:03;;;;;;;12.60;11.88;;;;;;;;;;5035862;28;20082;-62
2023/06/04 05:21:29;;;;;;;12.00;11.23;;;;;;;;;;5032711;28;20038;-62
2023/06/04 05:23:55;;;;;;;13.30;12.50;;;;;;;;;;5040138;28;20044;-56
2023/06/04 05:26:27;;;;;;;12.02;11.32;;;;;;;;;;5036432;28;20261;-56
2023/06/04 05:28:53;;;;;;;12.10;11.40;;;;;;;;;;5035102;28;20406;-62
2023/06/04 05:31:18;;;;;;;12.55;11.85;;;;;;;;;;5033568;28;20042;-61
2023/06/04 05:33:44;;;;;;;14.38;13.48;;;;;;;;;;5035959;28;20764;-62
2023/06/04 05:36:09;;;;;;;15.38;14.48;;;;;;;;;;5034785;28;20032;-62
2023/06/04 05:38:35;;;;;;;12.25;11.55;;;;;;;;;;5032465;28;20503;-62
2023/06/04 05:41:01;;;;;;;16.20;15.30;;;;;;;;;;5036090;28;20435;-62
2023/06/04 05:43:27;;;;;;;15.75;14.85;;;;;;;;;;5036079;28;20040;-55
2023/06/04 05:45:52;;;;;;;16.73;15.82;;;;;;;;;;5036881;28;20353;-62
2023/06/04 05:48:18;;;;;;;17.60;16.60;;;;;;;;;;5033235;28;20072;-64
2023/06/04 05:50:43;;;;;;;19.80;18.67;;;;;;;;;;5032144;28;20030;-56
2023/06/04 05:53:09;;;;;;;17.30;16.33;;;;;;;;;;5037388;28;20040;-55
2023/06/04 05:55:34;;;;;;;21.02;19.85;;;;;;;;;;5035112;28;20037;-54
2023/06/04 05:58:00;;;;;;;20.45;19.35;;;;;;;;;;5038074;28;20033;-55
2023/06/04 06:00:25;;;;;;;19.75;18.65;;;;;;;;;;5034659;28;20460;-63
2023/06/04 06:02:52;;;;;;;18.90;17.90;;;;;;;;;;5031301;28;20067;-56
2023/06/04 06:05:18;;;;;;;19.73;18.63;;;;;;;;;;5033219;28;20029;-54
2023/06/04 06:07:44;;;;;;;17.85;16.75;;;;;;;;;;5034313;28;20037;-52
2023/06/04 06:10:10;;;;;;;15.85;14.95;;;;;;;;;;5032661;28;20367;-53
2023/06/04 06:12:35;;;;;;;16.35;15.35;;;;;;;;;;5034836;28;20094;-59
2023/06/04 06:15:01;;;;;;;20.95;19.83;;;;;;;;;;5034585;28;20082;-59
2023/06/04 06:17:28;;;;;;;14.45;13.65;;;;;;;;;;5034858;28;20471;-59
2023/06/04 06:19:55;;;;;;;16.90;15.93;;;;;;;;;;5035332;28;20055;-60
2023/06/04 06:22:20;;;;;;;13.35;12.55;;;;;;;;;;5037963;28;20038;-49
2023/06/04 06:24:48;;;;;;;14.18;13.38;;;;;;;;;;5039123;28;20107;-49
2023/06/04 06:27:13;;;;;;;13.90;13.10;;;;;;;;;;5034204;28;20071;-49
2023/06/04 06:29:40;;;;;;;13.93;13.02;;;;;;;;;;5032166;28;20040;-53
2023/06/04 06:32:06;;;;;;;14.50;13.68;;;;;;;;;;5035142;28;20029;-49
2023/06/04 06:34:31;;;;;;;14.35;13.55;;;;;;;;;;5034741;28;20049;-49
2023/06/04 06:36:57;;;;;;;13.90;13.10;;;;;;;;;;5035221;28;20087;-52
2023/06/04 06:39:22;;;;;;;15.57;14.68;;;;;;;;;;5034745;28;20033;-50
2023/06/04 06:41:48;;;;;;;15.38;14.48;;;;;;;;;;5032833;28;20036;-48
2023/06/04 06:44:13;;;;;;;15.32;14.45;;;;;;;;;;5035469;28;20464;-50
2023/06/04 06:46:38;;;;;;;17.38;16.40;;;;;;;;;;5033941;28;20174;-53
2023/06/04 06:49:04;;;;;;;17.52;16.52;;;;;;;;;;5035131;28;20128;-58
2023/06/04 06:51:29;;;;;;;21.17;19.98;;;;;;;;;;5035637;28;20060;-49
2023/06/04 06:53:55;;;;;;;21.67;20.50;;;;;;;;;;5034518;28;20498;-50
2023/06/04 06:56:20;;;;;;;21.90;20.70;;;;;;;;;;5032851;28;20040;-60
2023/06/04 06:58:46;;;;;;;22.75;21.45;;;;;;;;;;5034364;28;20074;-52
2023/06/04 07:01:12;;;;;;;30.17;28.63;;;;;;;;;;5036359;28;20459;-60
2023/06/04 07:03:39;;;;;;;36.65;34.75;;;;;;;;;;5032958;28;20041;-60
2023/06/04 07:06:05;;;;;;;32.65;30.95;;;;;;;;;;5035392;28;20033;-59
2023/06/04 07:08:31;;;;;;;35.10;33.30;;;;;;;;;;5031098;28;20203;-60
2023/06/04 07:10:56;;;;;;;35.67;33.83;;;;;;;;;;5030381;28;20124;-49
2023/06/04 07:13:22;;;;;;;37.17;35.25;;;;;;;;;;5033977;28;20045;-60
2023/06/04 07:15:47;;;;;;;26.27;24.90;;;;;;;;;;5035357;28;20480;-60
2023/06/04 07:18:13;;;;;;;28.25;26.75;;;;;;;;;;5034877;28;20494;-51
2023/06/04 07:20:38;;;;;;;26.75;25.35;;;;;;;;;;5032454;28;20104;-49
2023/06/04 07:23:03;;;;;;;27.55;26.05;;;;;;;;;;5032231;28;20108;-50
2023/06/04 07:25:29;;;;;;;26.08;24.65;;;;;;;;;;5032077;28;20040;-47
2023/06/04 07:27:57;;;;;;;32.80;31.10;;;;;;;;;;5032119;28;20084;-47
2023/06/04 07:30:24;;;;;;;20.33;19.23;;;;;;;;;;5033058;28;20041;-47
2023/06/04 07:32:49;;;;;;;23.27;21.98;;;;;;;;;;5033440;28;20029;-47
2023/06/04 07:35:15;;;;;;;28.25;26.75;;;;;;;;;;5033126;28;20055;-49
2023/06/04 07:37:41;;;;;;;37.67;35.72;;;;;;;;;;5035222;28;20088;-48
2023/06/04 07:40:07;;;;;;;21.95;20.75;;;;;;;;;;5033026;28;20044;-59
2023/06/04 07:42:32;;;;;;;33.55;31.85;;;;;;;;;;5033219;28;20579;-59
2023/06/04 07:44:58;;;;;;;26.50;25.10;;;;;;;;;;5032555;28;20609;-53
2023/06/04 07:47:24;;;;;;;27.15;25.75;;;;;;;;;;5036684;28;20048;-50
2023/06/04 07:49:49;;;;;;;26.98;25.58;;;;;;;;;;5029322;28;20356;-60
2023/06/04 07:52:15;;;;;;;29.20;27.65;;;;;;;;;;5029614;28;20314;-59
2023/06/04 07:54:41;;;;;;;26.02;24.63;;;;;;;;;;5029919;28;20029;-49
2023/06/04 07:57:07;;;;;;;26.23;24.83;;;;;;;;;;5033077;28;20448;-50
2023/06/04 07:59:32;;;;;;;25.23;23.88;;;;;;;;;;5032130;28;20029;-53
2023/06/04 08:01:58;;;;;;;27.13;25.67;;;;;;;;;;5033207;28;20367;-53
2023/06/04 08:04:23;;;;;;;27.17;25.52;;;;;;;;;;5030124;28;20470;-52
2023/06/04 08:06:49;;;;;;;27.23;25.77;;;;;;;;;;5033018;28;20561;-48
2023/06/04 08:09:15;;;;;;;26.15;24.73;;;;;;;;;;5033669;28;20041;-59
2023/06/04 08:11:43;;;;;;;27.38;25.95;;;;;;;;;;5032605;28;20040;-59
2023/06/04 08:14:08;;;;;;;27.55;26.10;;;;;;;;;;5032007;28;20128;-51
2023/06/04 08:16:33;;;;;;;31.45;29.45;;;;;;;;;;5033590;28;20055;-50
2023/06/04 08:18:59;;;;;;;30.27;28.70;;;;;;;;;;5033885;28;20018;-59
2023/06/04 08:21:28;;;;;;;31.38;29.23;;;;;;;;;;5028005;28;20417;-59
2023/06/04 08:23:55;;;;;;;30.05;28.48;;;;;;;;;;5032465;28;20119;-60
2023/06/04 08:26:20;;;;;;;31.63;29.95;;;;;;;;;;5038443;28;20033;-59
2023/06/04 08:28:49;;;;;;;32.80;30.85;;;;;;;;;;5035453;28;20540;-60
2023/06/04 08:31:15;;;;;;;31.27;29.55;;;;;;;;;;5036638;28;20555;-51
2023/06/04 08:33:41;;;;;;;37.65;35.67;;;;;;;;;;5037324;28;20041;-60
2023/06/04 08:36:06;;;;;;;37.85;35.90;;;;;;;;;;5038813;28;20454;-52
2023/06/04 08:38:32;;;;;;;42.33;40.17;;;;;;;;;;5038671;28;21208;-49
2023/06/04 08:41:26;;;;;;;40.28;38.22;;;;;;;;;;5037348;28;20366;-52
2023/06/04 08:43:55;;;;;;;40.00;37.95;;;;;;;;;;5036872;28;20765;-52
2023/06/04 08:46:21;;;;;;;42.90;40.72;;;;;;;;;;5036680;28;20091;-52
2023/06/04 08:48:49;;;;;;;39.47;37.45;;;;;;;;;;5032317;28;20426;-52
2023/06/04 08:51:15;;;;;;;55.28;52.50;;;;;;;;;;5037367;28;20032;-49
2023/06/04 08:53:42;;;;;;;54.38;51.65;;;;;;;;;;5035439;28;20700;-54
2023/06/04 08:56:08;;;;;;;57.53;54.65;;;;;;;;;;5035319;28;20034;-54
2023/06/04 08:58:40;;;;;;;56.70;53.80;;;;;;;;;;5037570;28;20055;-59
2023/06/04 09:01:05;;;;;;;60.63;57.53;;;;;;;;;;5034809;28;20087;-50
2023/06/04 09:03:32;;;;;;;58.25;55.33;;;;;;;;;;5037638;28;20341;-60
2023/06/04 09:05:59;;;;;;;61.60;58.50;;;;;;;;;;5034798;28;20427;-51
2023/06/04 09:08:25;;;;;;;61.17;58.08;;;;;;;;;;5044442;28;20037;-51
2023/06/04 09:10:53;;;;;;;56.90;54.05;;;;;;;;;;5038543;28;20037;-57
2023/06/04 09:13:22;;;;;;;62.03;58.92;;;;;;;;;;5035776;28;20042;-52
2023/06/04 09:15:59;;;;;;;58.90;55.95;;;;;;;;;;5037126;28;20037;-59
2023/06/04 09:18:26;;;;;;;63.65;60.47;;;;;;;;;;5032836;28;20037;-58
2023/06/04 09:21:05;;;;;;;61.40;58.20;;;;;;;;;;5034444;28;20091;-59
2023/06/04 09:23:51;;;;;;;62.10;59.00;;;;;;;;;;5035276;28;20033;-59
2023/06/04 09:26:16;;;;;;;63.00;59.85;;;;;;;;;;5036386;28;20124;-59
2023/06/04 09:28:43;;;;;;;62.47;59.38;;;;;;;;;;5034217;28;20136;-52
2023/06/04 09:31:18;;;;;;;59.92;56.92;;;;;;;;;;5035271;28;20029;-49
2023/06/04 09:33:43;;;;;;;66.28;62.97;;;;;;;;;;5035453;28;20034;-59
2023/06/04 09:36:09;;;;;;;61.17;58.05;;;;;;;;;;5036239;28;20498;-53
2023/06/04 09:38:35;;;;;;;50.50;47.97;;;;;;;;;;5038085;28;20029;-50
2023/06/04 09:41:04;;;;;;;39.17;37.15;;;;;;;;;;5035459;28;20032;-59
2023/06/04 09:43:30;;;;;;;42.75;40.55;;;;;;;;;;5032954;28;20043;-58
2023/06/04 09:45:56;;;;;;;46.55;44.17;;;;;;;;;;5032142;28;20510;-59
2023/06/04 09:48:22;;;;;;;38.60;36.63;;;;;;;;;;5035899;28;20116;-51
2023/06/04 09:50:48;;;;;;;44.50;42.22;;;;;;;;;;5034917;28;20119;-59
2023/06/04 09:53:22;;;;;;;36.38;34.53;;;;;;;;;;5038335;28;20037;-52
2023/06/04 09:56:01;;;;;;;43.05;40.28;;;;;;;;;;5038210;28;20030;-52
2023/06/04 09:58:27;;;;;;;30.95;29.35;;;;;;;;;;5035583;28;20482;-53
2023/06/04 10:00:55;;;;;;;36.47;34.58;;;;;;;;;;5034468;28;20040;-59
2023/06/04 10:03:30;;;;;;;32.83;31.13;;;;;;;;;;5038302;28;20120;-59
2023/06/04 10:06:00;;;;;;;35.17;33.40;;;;;;;;;;5036709;28;20165;-51
2023/06/04 10:08:26;;;;;;;32.80;31.10;;;;;;;;;;5034285;28;20039;-60
2023/06/04 10:10:55;;;;;;;39.58;37.58;;;;;;;;;;5035805;28;20522;-58
2023/06/04 10:13:24;;;;;;;48.20;45.78;;;;;;;;;;5034105;28;20091;-60
2023/06/04 10:15:50;;;;;;;52.85;50.17;;;;;;;;;;5042189;28;20024;-59
2023/06/04 10:18:16;;;;;;;50.33;47.80;;;;;;;;;;5032862;28;20117;-50
2023/06/04 10:20:42;;;;;;;52.15;49.50;;;;;;;;;;5035365;28;20109;-48
2023/06/04 10:23:07;;;;;;;58.58;55.63;;;;;;;;;;5035248;28;20437;-58
2023/06/04 10:25:36;;;;;;;50.70;48.15;;;;;;;;;;5036086;28;20530;-59
2023/06/04 10:28:02;;;;;;;53.60;50.90;;;;;;;;;;5033742;28;20103;-60
2023/06/04 10:30:29;;;;;;;57.17;54.33;;;;;;;;;;5033686;28;20419;-59
2023/06/04 10:32:57;;;;;;;54.58;51.85;;;;;;;;;;5035270;28;20032;-51
2023/06/04 10:35:33;;;;;;;55.90;53.10;;;;;;;;;;5035746;28;20057;-52
2023/06/04 10:38:16;;;;;;;52.60;49.92;;;;;;;;;;5036313;28;20033;-50
2023/06/04 10:40:42;;;;;;;63.15;60.00;;;;;;;;;;5036467;28;20033;-50
2023/06/04 10:43:12;;;;;;;55.88;53.08;;;;;;;;;;5036035;28;20556;-52
2023/06/04 10:45:39;;;;;;;55.65;52.85;;;;;;;;;;5036268;28;20037;-60
2023/06/04 10:48:09;;;;;;;54.72;51.97;;;;;;;;;;5039563;28;20057;-57
2023/06/04 10:50:47;;;;;;;54.03;51.28;;;;;;;;;;5036309;28;20047;-59
2023/06/04 10:53:12;;;;;;;57.28;54.38;;;;;;;;;;5036889;28;20538;-58
2023/06/04 10:55:46;;;;;;;63.13;59.95;;;;;;;;;;5034180;28;20037;-47
2023/06/04 10:58:11;;;;;;;61.80;58.70;;;;;;;;;;5033600;28;20069;-58
2023/06/04 11:00:42;;;;;;;58.25;55.33;;;;;;;;;;5037681;28;20130;-59
2023/06/04 11:03:10;;;;;;;61.40;58.30;;;;;;;;;;5033493;28;20033;-59
2023/06/04 11:05:42;;;;;;;64.47;61.25;;;;;;;;;;5035103;28;20377;-59
2023/06/04 11:08:10;;;;;;;61.88;58.78;;;;;;;;;;5032868;28;20044;-57
2023/06/04 11:10:44;;;;;;;64.82;61.60;;;;;;;;;;5030724;28;20052;-49
2023/06/04 11:13:09;;;;;;;64.07;60.78;;;;;;;;;;5035705;28;20060;-50
2023/06/04 11:15:42;;;;;;;57.88;54.97;;;;;;;;;;5034299;28;20511;-49
2023/06/04 11:18:13;;;;;;;65.35;62.10;;;;;;;;;;5035913;28;20043;-58
2023/06/04 11:20:38;;;;;;;59.97;57.00;;;;;;;;;;5031330;28;20045;-59
2023/06/04 11:23:05;;;;;;;68.68;65.28;;;;;;;;;;5034549;28;20411;-59
2023/06/04 11:25:32;;;;;;;70.38;66.85;;;;;;;;;;5032965;28;20025;-59
2023/06/04 11:27:59;;;;;;;67.28;63.92;;;;;;;;;;5031195;28;20068;-49
2023/06/04 11:30:25;;;;;;;68.47;65.07;;;;;;;;;;5034302;28;20462;-51
2023/06/04 11:33:00;;;;;;;63.58;60.30;;;;;;;;;;5037010;28;20098;-59
2023/06/04 11:35:25;;;;;;;60.42;57.42;;;;;;;;;;5033553;28;20153;-59
2023/06/04 11:37:55;;;;;;;59.40;56.40;;;;;;;;;;5032120;28;20105;-47
2023/06/04 11:40:20;;;;;;;29.42;27.90;;;;;;;;;;5034524;28;20095;-49
2023/06/04 11:42:47;;;;;;;45.90;43.58;;;;;;;;;;5036463;28;20426;-58
2023/06/04 11:45:14;;;;;;;45.90;43.55;;;;;;;;;;5032107;28;20033;-47
2023/06/04 11:47:44;;;;;;;36.33;34.45;;;;;;;;;;5032279;28;20649;-53
2023/06/04 11:50:11;;;;;;;42.85;40.53;;;;;;;;;;5033421;28;20045;-52
2023/06/04 11:52:36;;;;;;;46.15;43.80;;;;;;;;;;5032197;28;20120;-58
2023/06/04 11:55:02;;;;;;;53.03;50.35;;;;;;;;;;5034871;28;20148;-56
2023/06/04 11:57:27;;;;;;;51.42;48.42;;;;;;;;;;5033454;28;20072;-59
2023/06/04 11:59:53;;;;;;;50.03;47.47;;;;;;;;;;5033480;28;20131;-52
2023/06/04 12:02:19;;;;;;;62.95;59.80;;;;;;;;;;5041140;28;20037;-58
2023/06/04 12:04:45;;;;;;;31.90;30.25;;;;;;;;;;5040498;28;20033;-52
2023/06/04 12:07:11;;;;;;;24.73;23.42;;;;;;;;;;5036624;28;20082;-48
2023/06/04 12:09:39;;;;;;;23.92;22.65;;;;;;;;;;5035681;28;20041;-56
2023/06/04 12:12:06;;;;;;;24.40;23.10;;;;;;;;;;5036624;28;20037;-57
2023/06/04 12:14:32;;;;;;;24.25;22.95;;;;;;;;;;5037242;28;20033;-59
2023/06/04 12:16:59;;;;;;;21.40;20.00;;;;;;;;;;5038210;28;20518;-59
2023/06/04 12:19:26;;;;;;;19.95;18.85;;;;;;;;;;5034995;28;20025;-58
2023/06/04 12:22:06;;;;;;;18.60;17.60;;;;;;;;;;5037676;28;20655;-58
2023/06/04 12:24:37;;;;;;;19.77;18.67;;;;;;;;;;5041042;28;20033;-59
2023/06/04 12:27:08;;;;;;;34.42;20.27;;;;;;;;;;5037479;28;20041;-58
2023/06/04 12:29:34;;;;;;;36.13;34.22;;;;;;;;;;5038136;28;20473;-58
2023/06/04 12:32:11;;;;;;;24.33;23.02;;;;;;;;;;5043580;28;20037;-51
2023/06/04 12:34:37;;;;;;;22.63;21.42;;;;;;;;;;5037207;28;20039;-50
2023/06/04 12:37:05;;;;;;;20.73;19.55;;;;;;;;;;5036486;28;20344;-51
2023/06/04 12:39:36;;;;;;;18.75;17.75;;;;;;;;;;5035963;28;20029;-58
2023/06/04 12:42:02;;;;;;;18.55;17.55;;;;;;;;;;5037028;28;20106;-49
2023/06/04 12:44:28;;;;;;;19.15;18.10;;;;;;;;;;5038900;28;20362;-58
2023/06/04 12:46:53;;;;;;;20.83;19.70;;;;;;;;;;5036681;28;20029;-59
2023/06/04 12:49:19;;;;;;;21.58;20.25;;;;;;;;;;5034340;28;20095;-59
2023/06/04 12:51:44;;;;;;;18.95;17.92;;;;;;;;;;5036344;28;20055;-58
2023/06/04 12:54:10;;;;;;;22.98;21.77;;;;;;;;;;5040856;28;20033;-60
2023/06/04 12:56:36;;;;;;;19.05;18.05;;;;;;;;;;5038120;28;20037;-59
2023/06/04 12:59:01;;;;;;;20.88;19.67;;;;;;;;;;5034381;28;20022;-60
2023/06/04 13:01:27;;;;;;;21.52;20.35;;;;;;;;;;5034206;28;20033;-59
2023/06/04 13:03:53;;;;;;;20.02;18.92;;;;;;;;;;5039929;28;20035;-48
2023/06/04 13:06:18;;;;;;;20.45;19.35;;;;;;;;;;5034732;28;20033;-52
2023/06/04 13:08:43;;;;;;;19.42;18.35;;;;;;;;;;5034544;28;20048;-59
2023/06/04 13:11:09;;;;;;;20.33;19.23;;;;;;;;;;5036011;28;20129;-59
2023/06/04 13:13:35;;;;;;;18.48;17.48;;;;;;;;;;5035525;28;20033;-47
2023/06/04 13:16:00;;;;;;;18.42;17.42;;;;;;;;;;5039935;28;20037;-59
2023/06/04 13:18:26;;;;;;;19.17;18.08;;;;;;;;;;5036064;28;20397;-51
2023/06/04 13:20:51;;;;;;;18.98;17.98;;;;;;;;;;5038135;28;20363;-53
2023/06/04 13:23:17;;;;;;;21.15;20.02;;;;;;;;;;5034638;28;20039;-51
2023/06/04 13:25:43;;;;;;;20.67;19.58;;;;;;;;;;5034028;28;20041;-53
2023/06/04 13:28:08;;;;;;;20.60;19.50;;;;;;;;;;5035280;28;20033;-50
2023/06/04 13:30:39;;;;;;;20.77;19.58;;;;;;;;;;5036035;28;20423;-52
2023/06/04 13:33:05;;;;;;;20.00;18.90;;;;;;;;;;5034262;28;20032;-52
2023/06/04 13:35:31;;;;;;;19.02;18.00;;;;;;;;;;5032655;28;20040;-49
2023/06/04 13:37:57;;;;;;;20.33;19.23;;;;;;;;;;5034279;28;20044;-52
2023/06/04 13:40:22;;;;;;;20.38;19.17;;;;;;;;;;5032489;28;20037;-48
2023/06/04 13:42:47;;;;;;;19.73;18.63;;;;;;;;;;5034839;28;20029;-59
2023/06/04 13:45:13;;;;;;;19.73;18.63;;;;;;;;;;5035842;28;20057;-48
2023/06/04 13:47:38;;;;;;;20.48;19.38;;;;;;;;;;5033998;28;20104;-52
2023/06/04 13:50:04;;;;;;;21.88;20.67;;;;;;;;;;5036873;28;20033;-52
2023/06/04 13:52:30;;;;;;;21.73;20.52;;;;;;;;;;5037309;28;20482;-48
2023/06/04 13:54:56;;;;;;;23.92;22.63;;;;;;;;;;5035472;28;20033;-49
2023/06/04 13:57:22;;;;;;;19.95;18.75;;;;;;;;;;5035825;28;20039;-58
2023/06/04 13:59:49;;;;;;;28.65;27.15;;;;;;;;;;5036228;28;20044;-59
2023/06/04 14:02:14;;;;;;;19.15;18.15;;;;;;;;;;5033843;28;20362;-50
2023/06/04 14:04:40;;;;;;;18.88;17.88;;;;;;;;;;5034281;28;20128;-51
2023/06/04 14:07:06;;;;;;;19.88;18.77;;;;;;;;;;5033710;28;20025;-53
2023/06/04 14:09:31;;;;;;;22.00;20.80;;;;;;;;;;5033529;28;20044;-51
2023/06/04 14:11:56;;;;;;;19.90;18.80;;;;;;;;;;5036492;28;20028;-49
2023/06/04 14:14:22;;;;;;;19.90;18.70;;;;;;;;;;5037945;28;20143;-59